sensor_id;sensor_type;location;lat;lon;timestamp;P1;durP1;ratioP1;P2;durP2;ratioP2
65751;SDS011;52486;51.098;13.770;2023-08-30T00:00:44;3.30;;;1.75;;
65751;SDS011;52486;51.098;13.770;2023-08-30T00:03:10;1.85;;;1.42;;
65751;SDS011;52486;51.098;13.770;2023-08-30T00:05:40;1.75;;;1.50;;
65751;SDS011;52486;51.098;13.770;2023-08-30T00:08:06;2.47;;;1.85;;
65751;SDS011;52486;51.098;13.770;2023-08-30T00:10:33;2.22;;;1.83;;
65751;SDS011;52486;51.098;13.770;2023-08-30T00:12:59;3.25;;;1.75;;
65751;SDS011;52486;51.098;13.770;2023-08-30T00:15:25;2.95;;;1.60;;
65751;SDS011;52486;51.098;13.770;2023-08-30T00:17:51;1.70;;;1.60;;
65751;SDS011;52486;51.098;13.770;2023-08-30T00:20:18;2.35;;;1.90;;
65751;SDS011;52486;51.098;13.770;2023-08-30T00:22:44;2.63;;;1.88;;
65751;SDS011;52486;51.098;13.770;2023-08-30T00:25:10;2.42;;;1.92;;
65751;SDS011;52486;51.098;13.770;2023-08-30T00:27:36;2.40;;;1.70;;
65751;SDS011;52486;51.098;13.770;2023-08-30T00:30:02;3.17;;;1.80;;
65751;SDS011;52486;51.098;13.770;2023-08-30T00:32:29;2.20;;;1.70;;
65751;SDS011;52486;51.098;13.770;2023-08-30T00:34:55;3.08;;;1.90;;
65751;SDS011;52486;51.098;13.770;2023-08-30T00:37:20;1.85;;;1.50;;
65751;SDS011;52486;51.098;13.770;2023-08-30T00:39:46;1.60;;;1.50;;
65751;SDS011;52486;51.098;13.770;2023-08-30T00:42:11;2.45;;;1.75;;
65751;SDS011;52486;51.098;13.770;2023-08-30T00:44:37;2.25;;;1.70;;
65751;SDS011;52486;51.098;13.770;2023-08-30T00:47:03;2.38;;;1.77;;
65751;SDS011;52486;51.098;13.770;2023-08-30T00:49:29;2.25;;;1.77;;
65751;SDS011;52486;51.098;13.770;2023-08-30T00:51:56;1.65;;;1.55;;
65751;SDS011;52486;51.098;13.770;2023-08-30T00:54:27;3.60;;;1.80;;
65751;SDS011;52486;51.098;13.770;2023-08-30T00:56:54;2.13;;;1.70;;
65751;SDS011;52486;51.098;13.770;2023-08-30T00:59:20;2.42;;;1.60;;
65751;SDS011;52486;51.098;13.770;2023-08-30T01:01:46;2.47;;;1.80;;
65751;SDS011;52486;51.098;13.770;2023-08-30T01:04:13;2.80;;;1.88;;
65751;SDS011;52486;51.098;13.770;2023-08-30T01:06:39;1.85;;;1.60;;
65751;SDS011;52486;51.098;13.770;2023-08-30T01:09:05;2.13;;;1.63;;
65751;SDS011;52486;51.098;13.770;2023-08-30T01:11:32;3.25;;;1.88;;
65751;SDS011;52486;51.098;13.770;2023-08-30T01:14:08;1.60;;;1.48;;
65751;SDS011;52486;51.098;13.770;2023-08-30T01:16:40;1.70;;;1.60;;
65751;SDS011;52486;51.098;13.770;2023-08-30T01:24:30;2.58;;;1.98;;
65751;SDS011;52486;51.098;13.770;2023-08-30T01:27:08;1.65;;;1.55;;
65751;SDS011;52486;51.098;13.770;2023-08-30T01:29:36;1.60;;;1.50;;
65751;SDS011;52486;51.098;13.770;2023-08-30T01:32:04;2.10;;;1.67;;
65751;SDS011;52486;51.098;13.770;2023-08-30T01:34:32;1.80;;;1.70;;
65751;SDS011;52486;51.098;13.770;2023-08-30T01:36:59;2.80;;;1.95;;
65751;SDS011;52486;51.098;13.770;2023-08-30T01:39:25;1.88;;;1.65;;
65751;SDS011;52486;51.098;13.770;2023-08-30T01:41:51;2.17;;;1.90;;
65751;SDS011;52486;51.098;13.770;2023-08-30T01:44:23;1.83;;;1.58;;
65751;SDS011;52486;51.098;13.770;2023-08-30T01:46:53;1.92;;;1.60;;
65751;SDS011;52486;51.098;13.770;2023-08-30T01:49:19;1.70;;;1.60;;
65751;SDS011;52486;51.098;13.770;2023-08-30T01:51:45;2.00;;;1.80;;
65751;SDS011;52486;51.098;13.770;2023-08-30T01:54:11;1.63;;;1.52;;
65751;SDS011;52486;51.098;13.770;2023-08-30T01:56:42;2.92;;;1.58;;
65751;SDS011;52486;51.098;13.770;2023-08-30T01:59:08;1.63;;;1.50;;
65751;SDS011;52486;51.098;13.770;2023-08-30T02:01:34;2.40;;;1.77;;
65751;SDS011;52486;51.098;13.770;2023-08-30T02:03:59;1.80;;;1.65;;
65751;SDS011;52486;51.098;13.770;2023-08-30T02:06:32;1.60;;;1.50;;
65751;SDS011;52486;51.098;13.770;2023-08-30T02:09:17;1.40;;;1.20;;
65751;SDS011;52486;51.098;13.770;2023-08-30T02:14:12;1.98;;;1.77;;
65751;SDS011;52486;51.098;13.770;2023-08-30T02:16:42;2.13;;;1.85;;
65751;SDS011;52486;51.098;13.770;2023-08-30T02:19:09;2.20;;;1.83;;
65751;SDS011;52486;51.098;13.770;2023-08-30T02:21:37;1.70;;;1.60;;
65751;SDS011;52486;51.098;13.770;2023-08-30T02:24:07;1.73;;;1.60;;
65751;SDS011;52486;51.098;13.770;2023-08-30T02:26:33;1.92;;;1.73;;
65751;SDS011;52486;51.098;13.770;2023-08-30T02:28:59;1.77;;;1.50;;
65751;SDS011;52486;51.098;13.770;2023-08-30T02:31:25;2.22;;;1.67;;
65751;SDS011;52486;51.098;13.770;2023-08-30T02:33:51;1.95;;;1.45;;
65751;SDS011;52486;51.098;13.770;2023-08-30T02:36:16;1.50;;;1.40;;
65751;SDS011;52486;51.098;13.770;2023-08-30T02:38:42;1.70;;;1.42;;
65751;SDS011;52486;51.098;13.770;2023-08-30T02:41:08;1.67;;;1.58;;
65751;SDS011;52486;51.098;13.770;2023-08-30T02:43:35;1.67;;;1.52;;
65751;SDS011;52486;51.098;13.770;2023-08-30T02:46:01;1.55;;;1.45;;
65751;SDS011;52486;51.098;13.770;2023-08-30T02:48:29;1.60;;;1.40;;
65751;SDS011;52486;51.098;13.770;2023-08-30T02:50:55;1.60;;;1.50;;
65751;SDS011;52486;51.098;13.770;2023-08-30T02:53:21;2.00;;;1.77;;
65751;SDS011;52486;51.098;13.770;2023-08-30T02:55:48;2.22;;;1.75;;
65751;SDS011;52486;51.098;13.770;2023-08-30T02:58:14;1.85;;;1.52;;
65751;SDS011;52486;51.098;13.770;2023-08-30T03:00:40;1.77;;;1.60;;
65751;SDS011;52486;51.098;13.770;2023-08-30T03:03:06;1.67;;;1.58;;
65751;SDS011;52486;51.098;13.770;2023-08-30T03:05:32;1.67;;;1.58;;
65751;SDS011;52486;51.098;13.770;2023-08-30T03:07:58;2.33;;;1.65;;
65751;SDS011;52486;51.098;13.770;2023-08-30T03:10:24;2.13;;;1.92;;
65751;SDS011;52486;51.098;13.770;2023-08-30T03:12:50;2.03;;;1.60;;
65751;SDS011;52486;51.098;13.770;2023-08-30T03:15:16;1.50;;;1.40;;
65751;SDS011;52486;51.098;13.770;2023-08-30T03:17:42;2.10;;;1.90;;
65751;SDS011;52486;51.098;13.770;2023-08-30T03:20:08;1.63;;;1.52;;
65751;SDS011;52486;51.098;13.770;2023-08-30T03:22:35;1.70;;;1.60;;
65751;SDS011;52486;51.098;13.770;2023-08-30T03:25:01;1.80;;;1.67;;
65751;SDS011;52486;51.098;13.770;2023-08-30T03:27:28;2.63;;;1.77;;
65751;SDS011;52486;51.098;13.770;2023-08-30T03:29:55;1.60;;;1.50;;
65751;SDS011;52486;51.098;13.770;2023-08-30T03:32:21;1.80;;;1.70;;
65751;SDS011;52486;51.098;13.770;2023-08-30T03:34:47;1.92;;;1.65;;
65751;SDS011;52486;51.098;13.770;2023-08-30T03:37:13;2.33;;;1.80;;
65751;SDS011;52486;51.098;13.770;2023-08-30T03:39:40;1.75;;;1.60;;
65751;SDS011;52486;51.098;13.770;2023-08-30T03:42:06;2.13;;;1.50;;
65751;SDS011;52486;51.098;13.770;2023-08-30T03:44:32;1.60;;;1.50;;
65751;SDS011;52486;51.098;13.770;2023-08-30T03:46:58;1.98;;;1.67;;
65751;SDS011;52486;51.098;13.770;2023-08-30T03:49:23;1.77;;;1.48;;
65751;SDS011;52486;51.098;13.770;2023-08-30T03:51:49;1.92;;;1.83;;
65751;SDS011;52486;51.098;13.770;2023-08-30T03:54:15;1.95;;;1.45;;
65751;SDS011;52486;51.098;13.770;2023-08-30T03:56:44;3.03;;;1.60;;
65751;SDS011;52486;51.098;13.770;2023-08-30T03:59:11;2.10;;;1.90;;
65751;SDS011;52486;51.098;13.770;2023-08-30T04:01:37;1.95;;;1.65;;
65751;SDS011;52486;51.098;13.770;2023-08-30T04:04:03;1.50;;;1.40;;
65751;SDS011;52486;51.098;13.770;2023-08-30T04:06:30;2.22;;;1.63;;
65751;SDS011;52486;51.098;13.770;2023-08-30T04:08:55;2.47;;;1.70;;
65751;SDS011;52486;51.098;13.770;2023-08-30T04:11:22;1.85;;;1.45;;
65751;SDS011;52486;51.098;13.770;2023-08-30T04:13:48;1.73;;;1.40;;
65751;SDS011;52486;51.098;13.770;2023-08-30T04:16:14;1.85;;;1.60;;
65751;SDS011;52486;51.098;13.770;2023-08-30T04:18:39;1.60;;;1.50;;
65751;SDS011;52486;51.098;13.770;2023-08-30T04:21:05;2.20;;;1.65;;
65751;SDS011;52486;51.098;13.770;2023-08-30T04:23:33;1.92;;;1.60;;
65751;SDS011;52486;51.098;13.770;2023-08-30T04:25:59;2.42;;;1.55;;
65751;SDS011;52486;51.098;13.770;2023-08-30T04:28:25;2.85;;;1.70;;
65751;SDS011;52486;51.098;13.770;2023-08-30T04:30:55;1.90;;;1.58;;
65751;SDS011;52486;51.098;13.770;2023-08-30T04:33:21;2.85;;;1.83;;
65751;SDS011;52486;51.098;13.770;2023-08-30T04:35:51;1.50;;;1.40;;
65751;SDS011;52486;51.098;13.770;2023-08-30T04:38:17;2.03;;;1.60;;
65751;SDS011;52486;51.098;13.770;2023-08-30T04:40:43;1.73;;;1.63;;
65751;SDS011;52486;51.098;13.770;2023-08-30T04:43:08;2.10;;;1.80;;
65751;SDS011;52486;51.098;13.770;2023-08-30T04:45:34;4.95;;;1.25;;
65751;SDS011;52486;51.098;13.770;2023-08-30T04:48:00;2.95;;;1.25;;
65751;SDS011;52486;51.098;13.770;2023-08-30T04:50:26;5.38;;;1.40;;
65751;SDS011;52486;51.098;13.770;2023-08-30T04:52:52;6.43;;;1.23;;
65751;SDS011;52486;51.098;13.770;2023-08-30T04:55:17;3.90;;;1.13;;
65751;SDS011;52486;51.098;13.770;2023-08-30T04:57:43;2.25;;;1.20;;
65751;SDS011;52486;51.098;13.770;2023-08-30T05:00:13;5.53;;;1.10;;
65751;SDS011;52486;51.098;13.770;2023-08-30T05:02:40;2.08;;;1.10;;
65751;SDS011;52486;51.098;13.770;2023-08-30T05:05:08;1.38;;;0.90;;
65751;SDS011;52486;51.098;13.770;2023-08-30T05:07:34;2.15;;;1.00;;
65751;SDS011;52486;51.098;13.770;2023-08-30T05:10:00;1.20;;;1.10;;
65751;SDS011;52486;51.098;13.770;2023-08-30T05:12:26;1.55;;;1.15;;
65751;SDS011;52486;51.098;13.770;2023-08-30T05:14:52;1.85;;;1.00;;
65751;SDS011;52486;51.098;13.770;2023-08-30T05:17:18;4.07;;;1.48;;
65751;SDS011;52486;51.098;13.770;2023-08-30T05:19:44;2.88;;;1.50;;
65751;SDS011;52486;51.098;13.770;2023-08-30T05:22:10;2.17;;;1.23;;
65751;SDS011;52486;51.098;13.770;2023-08-30T05:24:37;6.72;;;1.30;;
65751;SDS011;52486;51.098;13.770;2023-08-30T05:27:03;2.05;;;1.40;;
65751;SDS011;52486;51.098;13.770;2023-08-30T05:29:29;3.00;;;1.30;;
65751;SDS011;52486;51.098;13.770;2023-08-30T05:31:55;6.90;;;1.45;;
65751;SDS011;52486;51.098;13.770;2023-08-30T05:34:20;2.10;;;1.25;;
65751;SDS011;52486;51.098;13.770;2023-08-30T05:36:46;2.42;;;1.30;;
65751;SDS011;52486;51.098;13.770;2023-08-30T05:39:12;2.67;;;1.20;;
65751;SDS011;52486;51.098;13.770;2023-08-30T05:41:37;4.28;;;1.20;;
65751;SDS011;52486;51.098;13.770;2023-08-30T05:44:03;1.40;;;1.08;;
65751;SDS011;52486;51.098;13.770;2023-08-30T05:46:29;1.52;;;1.17;;
65751;SDS011;52486;51.098;13.770;2023-08-30T05:48:55;1.38;;;0.90;;
65751;SDS011;52486;51.098;13.770;2023-08-30T05:51:21;3.00;;;1.10;;
65751;SDS011;52486;51.098;13.770;2023-08-30T05:53:48;1.58;;;1.17;;
65751;SDS011;52486;51.098;13.770;2023-08-30T05:56:14;1.27;;;1.08;;
65751;SDS011;52486;51.098;13.770;2023-08-30T05:58:40;5.07;;;1.00;;
65751;SDS011;52486;51.098;13.770;2023-08-30T06:01:05;0.90;;;0.85;;
65751;SDS011;52486;51.098;13.770;2023-08-30T06:03:32;1.48;;;1.10;;
65751;SDS011;52486;51.098;13.770;2023-08-30T06:05:59;2.28;;;0.90;;
65751;SDS011;52486;51.098;13.770;2023-08-30T06:08:25;1.48;;;1.08;;
65751;SDS011;52486;51.098;13.770;2023-08-30T06:10:51;4.72;;;1.10;;
65751;SDS011;52486;51.098;13.770;2023-08-30T06:13:17;3.55;;;1.10;;
65751;SDS011;52486;51.098;13.770;2023-08-30T06:15:42;1.33;;;0.80;;
65751;SDS011;52486;51.098;13.770;2023-08-30T06:18:09;1.38;;;1.08;;
65751;SDS011;52486;51.098;13.770;2023-08-30T06:20:35;0.98;;;0.82;;
65751;SDS011;52486;51.098;13.770;2023-08-30T06:23:04;3.72;;;0.90;;
65751;SDS011;52486;51.098;13.770;2023-08-30T06:25:30;6.07;;;1.10;;
65751;SDS011;52486;51.098;13.770;2023-08-30T06:27:57;2.65;;;0.90;;
65751;SDS011;52486;51.098;13.770;2023-08-30T06:30:27;1.70;;;1.10;;
65751;SDS011;52486;51.098;13.770;2023-08-30T06:32:54;5.75;;;0.95;;
65751;SDS011;52486;51.098;13.770;2023-08-30T06:35:20;2.60;;;0.90;;
65751;SDS011;52486;51.098;13.770;2023-08-30T06:37:46;5.15;;;1.10;;
65751;SDS011;52486;51.098;13.770;2023-08-30T06:40:12;7.10;;;1.35;;
65751;SDS011;52486;51.098;13.770;2023-08-30T06:42:38;3.85;;;1.10;;
65751;SDS011;52486;51.098;13.770;2023-08-30T06:45:04;3.25;;;1.13;;
65751;SDS011;52486;51.098;13.770;2023-08-30T06:47:30;3.33;;;1.10;;
65751;SDS011;52486;51.098;13.770;2023-08-30T06:49:57;3.05;;;1.20;;
65751;SDS011;52486;51.098;13.770;2023-08-30T06:52:24;3.45;;;1.05;;
65751;SDS011;52486;51.098;13.770;2023-08-30T06:54:49;2.30;;;1.20;;
65751;SDS011;52486;51.098;13.770;2023-08-30T06:57:15;3.42;;;1.50;;
65751;SDS011;52486;51.098;13.770;2023-08-30T06:59:41;5.47;;;1.17;;
65751;SDS011;52486;51.098;13.770;2023-08-30T07:02:07;3.03;;;1.27;;
65751;SDS011;52486;51.098;13.770;2023-08-30T07:04:33;3.10;;;1.38;;
65751;SDS011;52486;51.098;13.770;2023-08-30T07:06:59;3.28;;;1.50;;
65751;SDS011;52486;51.098;13.770;2023-08-30T07:09:25;7.00;;;1.30;;
65751;SDS011;52486;51.098;13.770;2023-08-30T07:11:57;1.92;;;1.70;;
65751;SDS011;52486;51.098;13.770;2023-08-30T07:14:23;2.23;;;1.60;;
65751;SDS011;52486;51.098;13.770;2023-08-30T07:16:49;4.05;;;1.30;;
65751;SDS011;52486;51.098;13.770;2023-08-30T07:19:15;5.07;;;1.40;;
65751;SDS011;52486;51.098;13.770;2023-08-30T07:21:44;2.10;;;1.38;;
65751;SDS011;52486;51.098;13.770;2023-08-30T07:24:10;6.10;;;1.83;;
65751;SDS011;52486;51.098;13.770;2023-08-30T07:26:36;4.85;;;2.03;;
65751;SDS011;52486;51.098;13.770;2023-08-30T07:29:03;3.22;;;1.55;;
65751;SDS011;52486;51.098;13.770;2023-08-30T07:31:31;3.40;;;1.63;;
65751;SDS011;52486;51.098;13.770;2023-08-30T07:33:58;3.38;;;2.00;;
65751;SDS011;52486;51.098;13.770;2023-08-30T07:36:25;4.80;;;1.90;;
65751;SDS011;52486;51.098;13.770;2023-08-30T07:38:51;2.95;;;1.63;;
65751;SDS011;52486;51.098;13.770;2023-08-30T07:41:17;4.38;;;1.70;;
65751;SDS011;52486;51.098;13.770;2023-08-30T07:43:42;6.53;;;2.10;;
65751;SDS011;52486;51.098;13.770;2023-08-30T07:46:08;8.35;;;1.90;;
65751;SDS011;52486;51.098;13.770;2023-08-30T07:48:34;23.55;;;2.10;;
65751;SDS011;52486;51.098;13.770;2023-08-30T07:50:59;3.13;;;1.50;;
65751;SDS011;52486;51.098;13.770;2023-08-30T07:53:25;6.63;;;1.38;;
65751;SDS011;52486;51.098;13.770;2023-08-30T07:55:51;4.63;;;1.63;;
65751;SDS011;52486;51.098;13.770;2023-08-30T07:58:17;2.65;;;1.30;;
65751;SDS011;52486;51.098;13.770;2023-08-30T08:00:43;2.45;;;1.30;;
65751;SDS011;52486;51.098;13.770;2023-08-30T08:03:08;3.95;;;1.40;;
65751;SDS011;52486;51.098;13.770;2023-08-30T08:05:35;4.45;;;1.20;;
65751;SDS011;52486;51.098;13.770;2023-08-30T08:08:01;4.55;;;1.35;;
65751;SDS011;52486;51.098;13.770;2023-08-30T08:10:31;2.67;;;1.30;;
65751;SDS011;52486;51.098;13.770;2023-08-30T08:12:57;3.08;;;1.58;;
65751;SDS011;52486;51.098;13.770;2023-08-30T08:15:23;2.33;;;1.65;;
65751;SDS011;52486;51.098;13.770;2023-08-30T08:17:49;2.47;;;1.58;;
65751;SDS011;52486;51.098;13.770;2023-08-30T08:20:15;3.67;;;1.40;;
65751;SDS011;52486;51.098;13.770;2023-08-30T08:22:41;3.50;;;1.30;;
65751;SDS011;52486;51.098;13.770;2023-08-30T08:25:07;2.65;;;1.40;;
65751;SDS011;52486;51.098;13.770;2023-08-30T08:27:35;5.05;;;1.35;;
65751;SDS011;52486;51.098;13.770;2023-08-30T08:30:02;4.20;;;2.13;;
65751;SDS011;52486;51.098;13.770;2023-08-30T08:32:29;5.45;;;1.55;;
65751;SDS011;52486;51.098;13.770;2023-08-30T08:34:56;7.28;;;1.40;;
65751;SDS011;52486;51.098;13.770;2023-08-30T08:37:22;10.07;;;1.25;;
65751;SDS011;52486;51.098;13.770;2023-08-30T08:39:48;5.55;;;1.10;;
65751;SDS011;52486;51.098;13.770;2023-08-30T08:42:17;4.55;;;1.00;;
65751;SDS011;52486;51.098;13.770;2023-08-30T08:44:46;2.97;;;1.13;;
65751;SDS011;52486;51.098;13.770;2023-08-30T08:47:14;13.32;;;1.40;;
65751;SDS011;52486;51.098;13.770;2023-08-30T08:49:42;4.53;;;1.63;;
65751;SDS011;52486;51.098;13.770;2023-08-30T08:52:08;5.93;;;1.60;;
65751;SDS011;52486;51.098;13.770;2023-08-30T08:54:34;5.40;;;1.67;;
65751;SDS011;52486;51.098;13.770;2023-08-30T08:57:05;5.63;;;1.40;;
65751;SDS011;52486;51.098;13.770;2023-08-30T08:59:32;7.68;;;2.40;;
65751;SDS011;52486;51.098;13.770;2023-08-30T09:01:59;13.43;;;1.83;;
65751;SDS011;52486;51.098;13.770;2023-08-30T09:04:25;8.15;;;1.60;;
65751;SDS011;52486;51.098;13.770;2023-08-30T09:06:51;3.75;;;1.60;;
65751;SDS011;52486;51.098;13.770;2023-08-30T09:09:17;3.42;;;1.10;;
65751;SDS011;52486;51.098;13.770;2023-08-30T09:11:43;4.70;;;1.20;;
65751;SDS011;52486;51.098;13.770;2023-08-30T09:14:09;7.68;;;1.50;;
65751;SDS011;52486;51.098;13.770;2023-08-30T09:16:35;3.78;;;1.05;;
65751;SDS011;52486;51.098;13.770;2023-08-30T09:19:01;4.13;;;1.80;;
65751;SDS011;52486;51.098;13.770;2023-08-30T09:21:28;8.68;;;1.60;;
65751;SDS011;52486;51.098;13.770;2023-08-30T09:24:01;4.25;;;1.50;;
65751;SDS011;52486;51.098;13.770;2023-08-30T09:26:28;6.15;;;1.63;;
65751;SDS011;52486;51.098;13.770;2023-08-30T09:29:00;2.95;;;1.63;;
65751;SDS011;52486;51.098;13.770;2023-08-30T09:31:35;3.30;;;2.00;;
65751;SDS011;52486;51.098;13.770;2023-08-30T09:34:07;10.45;;;1.42;;
65751;SDS011;52486;51.098;13.770;2023-08-30T09:36:40;6.70;;;1.30;;
65751;SDS011;52486;51.098;13.770;2023-08-30T09:39:08;9.75;;;1.33;;
65751;SDS011;52486;51.098;13.770;2023-08-30T09:41:34;14.25;;;1.33;;
65751;SDS011;52486;51.098;13.770;2023-08-30T09:44:10;10.23;;;1.50;;
65751;SDS011;52486;51.098;13.770;2023-08-30T09:46:50;6.60;;;1.70;;
65751;SDS011;52486;51.098;13.770;2023-08-30T09:49:24;6.50;;;1.70;;
65751;SDS011;52486;51.098;13.770;2023-08-30T09:51:51;10.20;;;1.50;;
65751;SDS011;52486;51.098;13.770;2023-08-30T09:54:18;3.33;;;1.40;;
65751;SDS011;52486;51.098;13.770;2023-08-30T09:56:45;9.57;;;1.38;;
65751;SDS011;52486;51.098;13.770;2023-08-30T09:59:11;4.88;;;1.30;;
65751;SDS011;52486;51.098;13.770;2023-08-30T10:01:39;2.70;;;1.17;;
65751;SDS011;52486;51.098;13.770;2023-08-30T10:04:06;3.03;;;1.10;;
65751;SDS011;52486;51.098;13.770;2023-08-30T10:06:39;3.10;;;1.23;;
65751;SDS011;52486;51.098;13.770;2023-08-30T10:09:05;3.63;;;1.42;;
65751;SDS011;52486;51.098;13.770;2023-08-30T10:11:33;7.90;;;1.73;;
65751;SDS011;52486;51.098;13.770;2023-08-30T10:14:02;14.00;;;1.23;;
65751;SDS011;52486;51.098;13.770;2023-08-30T10:16:30;4.95;;;1.10;;
65751;SDS011;52486;51.098;13.770;2023-08-30T10:19:03;5.05;;;1.05;;
65751;SDS011;52486;51.098;13.770;2023-08-30T10:21:34;5.97;;;1.05;;
65751;SDS011;52486;51.098;13.770;2023-08-30T10:24:01;2.90;;;1.10;;
65751;SDS011;52486;51.098;13.770;2023-08-30T10:26:28;11.57;;;1.35;;
65751;SDS011;52486;51.098;13.770;2023-08-30T10:28:55;7.13;;;1.00;;
65751;SDS011;52486;51.098;13.770;2023-08-30T10:31:23;5.03;;;1.10;;
65751;SDS011;52486;51.098;13.770;2023-08-30T10:33:57;8.85;;;1.10;;
65751;SDS011;52486;51.098;13.770;2023-08-30T10:36:23;2.45;;;1.02;;
65751;SDS011;52486;51.098;13.770;2023-08-30T10:38:50;3.90;;;1.08;;
65751;SDS011;52486;51.098;13.770;2023-08-30T10:41:20;3.20;;;0.95;;
65751;SDS011;52486;51.098;13.770;2023-08-30T10:43:49;2.42;;;0.93;;
65751;SDS011;52486;51.098;13.770;2023-08-30T10:46:16;6.20;;;1.15;;
65751;SDS011;52486;51.098;13.770;2023-08-30T10:48:43;6.07;;;1.00;;
65751;SDS011;52486;51.098;13.770;2023-08-30T10:51:34;4.47;;;1.02;;
65751;SDS011;52486;51.098;13.770;2023-08-30T10:54:37;3.85;;;0.90;;
65751;SDS011;52486;51.098;13.770;2023-08-30T10:57:02;1.00;;;0.90;;
65751;SDS011;52486;51.098;13.770;2023-08-30T10:59:28;2.95;;;1.02;;
65751;SDS011;52486;51.098;13.770;2023-08-30T11:02:00;1.10;;;1.00;;
65751;SDS011;52486;51.098;13.770;2023-08-30T11:04:26;4.22;;;1.08;;
65751;SDS011;52486;51.098;13.770;2023-08-30T11:06:52;2.63;;;0.98;;
65751;SDS011;52486;51.098;13.770;2023-08-30T11:09:22;6.65;;;1.20;;
65751;SDS011;52486;51.098;13.770;2023-08-30T11:11:48;4.63;;;0.93;;
65751;SDS011;52486;51.098;13.770;2023-08-30T11:14:16;1.33;;;1.08;;
65751;SDS011;52486;51.098;13.770;2023-08-30T11:16:42;2.60;;;1.15;;
65751;SDS011;52486;51.098;13.770;2023-08-30T11:19:09;2.55;;;1.02;;
65751;SDS011;52486;51.098;13.770;2023-08-30T11:21:37;3.20;;;1.05;;
65751;SDS011;52486;51.098;13.770;2023-08-30T11:24:08;4.57;;;1.20;;
65751;SDS011;52486;51.098;13.770;2023-08-30T11:26:34;1.63;;;0.98;;
65751;SDS011;52486;51.098;13.770;2023-08-30T11:29:04;1.88;;;1.00;;
65751;SDS011;52486;51.098;13.770;2023-08-30T11:31:33;4.35;;;0.90;;
65751;SDS011;52486;51.098;13.770;2023-08-30T11:37:40;3.40;;;1.00;;
65751;SDS011;52486;51.098;13.770;2023-08-30T11:40:08;1.55;;;0.95;;
65751;SDS011;52486;51.098;13.770;2023-08-30T11:42:36;3.60;;;1.00;;
65751;SDS011;52486;51.098;13.770;2023-08-30T11:45:02;2.33;;;1.00;;
65751;SDS011;52486;51.098;13.770;2023-08-30T11:47:29;3.55;;;0.70;;
65751;SDS011;52486;51.098;13.770;2023-08-30T11:49:55;6.03;;;1.10;;
65751;SDS011;52486;51.098;13.770;2023-08-30T11:52:22;3.42;;;1.00;;
65751;SDS011;52486;51.098;13.770;2023-08-30T11:54:49;3.90;;;0.80;;
65751;SDS011;52486;51.098;13.770;2023-08-30T11:57:16;2.50;;;0.80;;
65751;SDS011;52486;51.098;13.770;2023-08-30T11:59:42;1.85;;;1.00;;
65751;SDS011;52486;51.098;13.770;2023-08-30T12:02:08;2.90;;;0.90;;
65751;SDS011;52486;51.098;13.770;2023-08-30T12:04:39;4.72;;;1.13;;
65751;SDS011;52486;51.098;13.770;2023-08-30T12:07:06;3.90;;;0.70;;
65751;SDS011;52486;51.098;13.770;2023-08-30T12:09:31;3.22;;;0.90;;
65751;SDS011;52486;51.098;13.770;2023-08-30T12:12:06;12.93;;;1.60;;
65751;SDS011;52486;51.098;13.770;2023-08-30T12:14:36;2.67;;;0.80;;
65751;SDS011;52486;51.098;13.770;2023-08-30T12:17:02;11.68;;;1.35;;
65751;SDS011;52486;51.098;13.770;2023-08-30T12:19:29;5.95;;;1.30;;
65751;SDS011;52486;51.098;13.770;2023-08-30T12:21:55;4.43;;;1.02;;
65751;SDS011;52486;51.098;13.770;2023-08-30T12:24:20;9.88;;;1.33;;
65751;SDS011;52486;51.098;13.770;2023-08-30T12:26:48;3.75;;;1.20;;
65751;SDS011;52486;51.098;13.770;2023-08-30T12:29:13;3.92;;;1.20;;
65751;SDS011;52486;51.098;13.770;2023-08-30T12:31:39;2.15;;;0.93;;
65751;SDS011;52486;51.098;13.770;2023-08-30T12:34:05;3.95;;;1.10;;
65751;SDS011;52486;51.098;13.770;2023-08-30T12:36:32;3.33;;;1.10;;
65751;SDS011;52486;51.098;13.770;2023-08-30T12:38:58;3.10;;;1.25;;
65751;SDS011;52486;51.098;13.770;2023-08-30T12:41:23;2.70;;;1.00;;
65751;SDS011;52486;51.098;13.770;2023-08-30T12:43:49;2.72;;;1.52;;
65751;SDS011;52486;51.098;13.770;2023-08-30T12:46:16;5.40;;;1.38;;
65751;SDS011;52486;51.098;13.770;2023-08-30T12:48:42;7.40;;;1.20;;
65751;SDS011;52486;51.098;13.770;2023-08-30T12:51:08;4.07;;;1.23;;
65751;SDS011;52486;51.098;13.770;2023-08-30T12:53:34;2.13;;;0.93;;
65751;SDS011;52486;51.098;13.770;2023-08-30T12:56:00;2.85;;;1.20;;
65751;SDS011;52486;51.098;13.770;2023-08-30T12:58:26;4.63;;;1.20;;
65751;SDS011;52486;51.098;13.770;2023-08-30T13:00:52;3.90;;;1.10;;
65751;SDS011;52486;51.098;13.770;2023-08-30T13:03:18;5.15;;;1.00;;
65751;SDS011;52486;51.098;13.770;2023-08-30T13:05:43;7.68;;;1.10;;
65751;SDS011;52486;51.098;13.770;2023-08-30T13:08:09;1.20;;;1.10;;
65751;SDS011;52486;51.098;13.770;2023-08-30T13:10:35;2.75;;;1.10;;
65751;SDS011;52486;51.098;13.770;2023-08-30T13:13:01;1.40;;;1.02;;
65751;SDS011;52486;51.098;13.770;2023-08-30T13:15:28;1.55;;;1.38;;
65751;SDS011;52486;51.098;13.770;2023-08-30T13:17:54;2.20;;;1.10;;
65751;SDS011;52486;51.098;13.770;2023-08-30T13:20:20;2.10;;;1.05;;
65751;SDS011;52486;51.098;13.770;2023-08-30T13:23:01;2.35;;;1.30;;
65751;SDS011;52486;51.098;13.770;2023-08-30T13:25:28;5.10;;;1.10;;
65751;SDS011;52486;51.098;13.770;2023-08-30T13:27:53;2.05;;;1.00;;
65751;SDS011;52486;51.098;13.770;2023-08-30T13:30:19;2.50;;;0.98;;
65751;SDS011;52486;51.098;13.770;2023-08-30T13:32:45;2.60;;;0.90;;
65751;SDS011;52486;51.098;13.770;2023-08-30T13:35:11;3.03;;;1.20;;
65751;SDS011;52486;51.098;13.770;2023-08-30T13:37:37;6.72;;;1.00;;
65751;SDS011;52486;51.098;13.770;2023-08-30T13:40:03;3.03;;;0.90;;
65751;SDS011;52486;51.098;13.770;2023-08-30T13:42:31;5.65;;;1.10;;
65751;SDS011;52486;51.098;13.770;2023-08-30T13:44:57;4.35;;;1.25;;
65751;SDS011;52486;51.098;13.770;2023-08-30T13:47:23;1.13;;;1.00;;
65751;SDS011;52486;51.098;13.770;2023-08-30T13:49:49;0.90;;;0.90;;
65751;SDS011;52486;51.098;13.770;2023-08-30T13:52:14;1.63;;;1.10;;
65751;SDS011;52486;51.098;13.770;2023-08-30T13:54:41;1.40;;;1.05;;
65751;SDS011;52486;51.098;13.770;2023-08-30T13:57:07;3.92;;;1.30;;
65751;SDS011;52486;51.098;13.770;2023-08-30T13:59:32;6.97;;;1.00;;
65751;SDS011;52486;51.098;13.770;2023-08-30T14:02:00;3.40;;;1.10;;
65751;SDS011;52486;51.098;13.770;2023-08-30T14:04:29;1.77;;;0.93;;
65751;SDS011;52486;51.098;13.770;2023-08-30T14:06:57;0.85;;;0.82;;
65751;SDS011;52486;51.098;13.770;2023-08-30T14:09:23;2.85;;;0.85;;
65751;SDS011;52486;51.098;13.770;2023-08-30T14:11:49;7.38;;;1.10;;
65751;SDS011;52486;51.098;13.770;2023-08-30T14:14:15;4.35;;;1.10;;
65751;SDS011;52486;51.098;13.770;2023-08-30T14:16:41;4.72;;;1.00;;
65751;SDS011;52486;51.098;13.770;2023-08-30T14:19:06;4.22;;;1.27;;
65751;SDS011;52486;51.098;13.770;2023-08-30T14:21:32;6.95;;;1.40;;
65751;SDS011;52486;51.098;13.770;2023-08-30T14:23:58;4.75;;;1.40;;
65751;SDS011;52486;51.098;13.770;2023-08-30T14:26:25;2.85;;;1.02;;
65751;SDS011;52486;51.098;13.770;2023-08-30T14:28:52;5.78;;;1.27;;
65751;SDS011;52486;51.098;13.770;2023-08-30T14:31:18;8.35;;;1.17;;
65751;SDS011;52486;51.098;13.770;2023-08-30T14:33:44;6.65;;;1.20;;
65751;SDS011;52486;51.098;13.770;2023-08-30T14:36:10;3.15;;;1.20;;
65751;SDS011;52486;51.098;13.770;2023-08-30T14:38:36;4.93;;;1.23;;
65751;SDS011;52486;51.098;13.770;2023-08-30T14:41:02;3.35;;;1.27;;
65751;SDS011;52486;51.098;13.770;2023-08-30T14:43:28;2.17;;;1.00;;